| time (UTC) | temp C | wind direction | speed KPH | gust KPH | rain 1hr cm | rain 24hr cm | rain mn cm | humidity % | barometer mb |
| 20260507010204 | 14 | 208 | 11.3 | 32.2 | 0.00 | 1.07 | 1.07 | 93 | 1004.6 |
| 20260507005703 | 14 | 190 | 9.7 | 19.3 | 0.00 | 1.07 | 1.07 | 93 | 1004.5 |
| 20260507005204 | 14 | 216 | 9.7 | 20.9 | 0.03 | 1.07 | 1.07 | 93 | 1004.5 |
| 20260507004703 | 14 | 235 | 8.0 | 19.3 | 0.03 | 1.07 | 1.07 | 93 | 1004.5 |
| 20260507004204 | 14 | 213 | 11.3 | 32.2 | 0.03 | 1.07 | 1.07 | 93 | 1004.5 |
| 20260507003204 | 14 | 224 | 14.5 | 29.0 | 0.03 | 1.07 | 1.07 | 93 | 1004.5 |
| 20260507002704 | 14 | 214 | 9.7 | 24.1 | 0.03 | 1.07 | 1.07 | 93 | 1004.3 |
| 20260507001703 | 14 | 195 | 8.0 | 19.3 | 0.03 | 1.07 | 1.07 | 93 | 1004.3 |
| 20260507000703 | 14 | 199 | 12.9 | 20.9 | 0.03 | 1.07 | 1.07 | 93 | 1004.3 |
| 20260507000212 | 14 | 201 | 8.0 | 22.5 | 0.03 | 1.07 | 1.07 | 93 | 1004.2 |
| 20260506235704 | 14 | 206 | 8.0 | 22.5 | 0.03 | 1.07 | 1.07 | 93 | 1004.3 |
| 20260506235203 | 14 | 224 | 8.0 | 20.9 | 0.00 | 1.04 | 1.04 | 93 | 1004.2 |
| 20260506234704 | 14 | 219 | 8.0 | 12.9 | 0.00 | 1.04 | 1.04 | 93 | 1004.2 |
| 20260506234203 | 14 | 186 | 9.7 | 19.3 | 0.03 | 1.04 | 1.04 | 93 | 1004.2 |
| 20260506233703 | 14 | 203 | 3.2 | 12.9 | 0.05 | 1.04 | 1.04 | 93 | 1004.0 |
| 20260506233204 | 14 | 202 | 4.8 | 14.5 | 0.10 | 1.04 | 1.04 | 93 | 1003.9 |
| 20260506232704 | 14 | 203 | 4.8 | 16.1 | 0.13 | 1.04 | 1.04 | 93 | 1004.0 |
| 20260506232203 | 14 | 216 | 9.7 | 20.9 | 0.18 | 1.04 | 1.04 | 93 | 1003.9 |
| 20260506231204 | 14 | 213 | 6.4 | 16.1 | 0.23 | 1.04 | 1.04 | 93 | 1003.9 |
| 20260506230704 | 14 | 195 | 4.8 | 12.9 | 0.25 | 1.04 | 1.04 | 93 | 1003.8 |
| 20260506230203 | 14 | 214 | 3.2 | 14.5 | 0.28 | 1.04 | 1.04 | 93 | 1003.9 |
| 20260506225705 | 14 | 210 | 4.8 | 14.5 | 0.30 | 1.04 | 1.04 | 93 | 1003.8 |
| 20260506224703 | 14 | 210 | 4.8 | 14.5 | 0.36 | 1.04 | 1.04 | 93 | 1003.9 |
| 20260506224204 | 14 | 186 | 8.0 | 16.1 | 0.33 | 1.02 | 1.02 | 93 | 1004.1 |
| 20260506223704 | 14 | 198 | 3.2 | 8.0 | 0.30 | 0.99 | 0.99 | 93 | 1003.9 |
| 20260506223203 | 14 | 281 | 4.8 | 22.5 | 0.28 | 0.94 | 0.94 | 93 | 1003.9 |
| 20260506222704 | 14 | 210 | 6.4 | 19.3 | 0.25 | 0.91 | 0.91 | 93 | 1004.0 |
| 20260506222203 | 14 | 225 | 9.7 | 19.3 | 0.20 | 0.86 | 0.86 | 92 | 1004.1 |
| 20260506220205 | 14 | 230 | 4.8 | 22.5 | 0.18 | 0.76 | 0.76 | 92 | 1004.2 |
| 20260506215704 | 14 | 211 | 8.0 | 20.9 | 0.18 | 0.74 | 0.74 | 92 | 1004.3 |
| 20260506215204 | 14 | 198 | 4.8 | 19.3 | 0.18 | 0.71 | 0.71 | 92 | 1004.3 |
| 20260506214704 | 14 | 204 | 11.3 | 20.9 | 0.20 | 0.69 | 0.69 | 92 | 1004.2 |
| 20260506214204 | 14 | 222 | 8.0 | 19.3 | 0.23 | 0.69 | 0.69 | 92 | 1004.2 |
| 20260506213704 | 14 | 197 | 8.0 | 19.3 | 0.23 | 0.69 | 0.69 | 92 | 1004.1 |
| 20260506213203 | 14 | 209 | 8.0 | 19.3 | 0.23 | 0.66 | 0.66 | 92 | 1004.2 |
| 20260506212703 | 14 | 190 | 6.4 | 19.3 | 0.25 | 0.66 | 0.66 | 92 | 1004.3 |
| 20260506212205 | 14 | 195 | 6.4 | 25.7 | 0.25 | 0.66 | 0.66 | 92 | 1004.2 |
| 20260506211704 | 14 | 176 | 6.4 | 19.3 | 0.25 | 0.64 | 0.64 | 92 | 1004.2 |
| 20260506211203 | 14 | 197 | 8.0 | 19.3 | 0.28 | 0.64 | 0.64 | 92 | 1004.2 |
| 20260506210204 | 14 | 227 | 8.0 | 19.3 | 0.30 | 0.58 | 0.58 | 92 | 1004.4 |
| 20260506205704 | 14 | 168 | 3.2 | 16.1 | 0.28 | 0.56 | 0.56 | 92 | 1004.3 |
| 20260506204703 | 14 | 217 | 6.4 | 14.5 | 0.25 | 0.48 | 0.48 | 92 | 1004.5 |
| 20260506204204 | 14 | 188 | 4.8 | 12.9 | 0.23 | 0.46 | 0.46 | 92 | 1004.6 |
| 20260506203203 | 14 | 188 | 4.8 | 12.9 | 0.23 | 0.43 | 0.43 | 91 | 1004.6 |
| 20260506201704 | 15 | 208 | 4.8 | 19.3 | 0.18 | 0.38 | 0.38 | 91 | 1004.8 |
| 20260506201204 | 15 | 166 | 4.8 | 16.1 | 0.15 | 0.36 | 0.36 | 90 | 1004.9 |
| 20260506200704 | 15 | 178 | 3.2 | 14.5 | 0.13 | 0.30 | 0.30 | 91 | 1004.9 |
| 20260506200203 | 15 | 199 | 4.8 | 12.9 | 0.10 | 0.28 | 0.28 | 90 | 1004.8 |
| 20260506195704 | 15 | 220 | 3.2 | 19.3 | 0.10 | 0.28 | 0.28 | 90 | 1004.9 |
| 20260506195204 | 15 | 199 | 3.2 | 19.3 | 0.10 | 0.25 | 0.25 | 90 | 1004.9 |
| 20260506194703 | 15 | 125 | 3.2 | 19.3 | 0.08 | 0.23 | 0.23 | 90 | 1004.9 |
| 20260506194203 | 15 | 214 | 1.6 | 19.3 | 0.08 | 0.23 | 0.23 | 89 | 1005.0 |
| 20260506193704 | 15 | 173 | 3.2 | 19.3 | 0.05 | 0.20 | 0.20 | 89 | 1005.2 |
| 20260506193204 | 15 | 231 | 6.4 | 32.2 | 0.05 | 0.20 | 0.20 | 89 | 1005.2 |
| 20260506192704 | 15 | 188 | 9.7 | 22.5 | 0.08 | 0.20 | 0.20 | 88 | 1005.1 |
| 20260506191704 | 15 | 198 | 9.7 | 20.9 | 0.08 | 0.20 | 0.20 | 89 | 1005.1 |
| 20260506191203 | 15 | 205 | 8.0 | 16.1 | 0.10 | 0.20 | 0.20 | 89 | 1005.1 |
| 20260506190704 | 15 | 164 | 4.8 | 11.3 | 0.10 | 0.18 | 0.18 | 90 | 1005.1 |
| 20260506190204 | 15 | 207 | 11.3 | 24.1 | 0.10 | 0.18 | 0.18 | 88 | 1005.2 |
| 20260506185704 | 15 | 222 | 4.8 | 14.5 | 0.13 | 0.18 | 0.18 | 89 | 1005.2 |
| 20260506185203 | 15 | 201 | 6.4 | 16.1 | 0.10 | 0.15 | 0.15 | 89 | 1005.1 |
| 20260506184704 | 15 | 218 | 3.2 | 12.9 | 0.13 | 0.15 | 0.15 | 89 | 1005.0 |
| 20260506184204 | 15 | 181 | 3.2 | 12.9 | 0.15 | 0.15 | 0.15 | 88 | 1005.1 |
| 20260506183204 | 15 | 154 | 4.8 | 16.1 | 0.15 | 0.15 | 0.15 | 88 | 1005.4 |
| 20260506182703 | 16 | 157 | 4.8 | 19.3 | 0.13 | 0.13 | 0.13 | 87 | 1005.4 |
| 20260506182204 | 16 | 179 | 4.8 | 20.9 | 0.13 | 0.13 | 0.13 | 87 | 1005.6 |
| 20260506181704 | 16 | 216 | 3.2 | 14.5 | 0.13 | 0.13 | 0.13 | 87 | 1005.7 |
| 20260506181204 | 16 | 177 | 8.0 | 22.5 | 0.10 | 0.10 | 0.10 | 86 | 1005.7 |
| 20260506180704 | 16 | 219 | 6.4 | 16.1 | 0.08 | 0.08 | 0.08 | 85 | 1005.8 |
| 20260506180204 | 16 | 175 | 6.4 | 16.1 | 0.08 | 0.08 | 0.08 | 84 | 1006.0 |
| 20260506175703 | 16 | 203 | 8.0 | 19.3 | 0.05 | 0.05 | 0.05 | 83 | 1006.0 |
| 20260506175204 | 16 | 0 | 9.7 | 19.3 | 0.05 | 0.05 | 0.05 | 81 | 1006.1 |
| 20260506174704 | 17 | 223 | 9.7 | 19.3 | 0.03 | 0.03 | 0.03 | 78 | 1006.1 |
| 20260506174203 | 17 | 209 | 8.0 | 25.7 | 0.00 | 0.00 | 0.00 | 76 | 1006.2 |
| 20260506173204 | 18 | 214 | 4.8 | 16.1 | 0.00 | 0.00 | 0.00 | 71 | 1006.1 |
| 20260506172703 | 19 | 223 | 8.0 | 20.9 | 0.00 | 0.00 | 0.00 | 69 | 1006.1 |
| 20260506172203 | 19 | 218 | 14.5 | 27.4 | 0.00 | 0.00 | 0.00 | 66 | 1006.1 |
| 20260506171704 | 19 | 211 | 9.7 | 24.1 | 0.00 | 0.00 | 0.00 | 66 | 1005.9 |
| 20260506171204 | 20 | 225 | 11.3 | 25.7 | 0.00 | 0.00 | 0.00 | 65 | 1005.8 |
| 20260506170704 | 20 | 217 | 9.7 | 19.3 | 0.00 | 0.00 | 0.00 | 65 | 1005.8 |
| 20260506170205 | 20 | 217 | 8.0 | 25.7 | 0.00 | 0.00 | 0.00 | 65 | 1005.9 |
| 20260506165704 | 20 | 213 | 9.7 | 20.9 | 0.00 | 0.00 | 0.00 | 65 | 1005.9 |
| 20260506165204 | 20 | 203 | 9.7 | 19.3 | 0.00 | 0.00 | 0.00 | 65 | 1005.9 |
| 20260506164703 | 20 | 195 | 4.8 | 29.0 | 0.00 | 0.00 | 0.00 | 65 | 1006.0 |
| 20260506163704 | 20 | 248 | 4.8 | 19.3 | 0.00 | 0.00 | 0.00 | 65 | 1006.0 |
| 20260506163231 | 20 | 212 | 14.5 | 32.2 | 0.00 | 0.00 | 0.00 | 64 | 1006.0 |
| 20260506162212 | 20 | 207 | 11.3 | 27.4 | 0.00 | 0.00 | 0.00 | 64 | 1006.2 |
| 20260506161710 | 19 | 216 | 12.9 | 27.4 | 0.00 | 0.00 | 0.00 | 64 | 1006.4 |
| 20260506161208 | 19 | 233 | 8.0 | 27.4 | 0.00 | 0.00 | 0.00 | 64 | 1006.3 |
| 20260506160746 | 19 | 252 | 16.1 | 32.2 | 0.00 | 0.00 | 0.00 | 64 | 1006.4 |
| 20260506160203 | 19 | 225 | 16.1 | 33.8 | 0.00 | 0.00 | 0.00 | 64 | 1006.6 |
| 20260506155702 | 20 | 161 | 9.7 | 20.9 | 0.00 | 0.00 | 0.00 | 64 | 1006.7 |
| 20260506155203 | 19 | 253 | 8.0 | 27.4 | 0.00 | 0.00 | 0.00 | 64 | 1006.7 |
| 20260506154702 | 19 | 186 | 9.7 | 32.2 | 0.00 | 0.00 | 0.00 | 64 | 1006.7 |
| 20260506154202 | 19 | 203 | 14.5 | 24.1 | 0.00 | 0.00 | 0.00 | 64 | 1006.9 |
| 20260506153703 | 19 | 221 | 8.0 | 19.3 | 0.00 | 0.00 | 0.00 | 65 | 1006.7 |
| 20260506153204 | 19 | 193 | 9.7 | 29.0 | 0.00 | 0.00 | 0.00 | 65 | 1006.9 |
| 20260506152702 | 19 | 218 | 12.9 | 37.0 | 0.00 | 0.00 | 0.00 | 65 | 1006.9 |
| 20260506152202 | 19 | 198 | 16.1 | 32.2 | 0.00 | 0.00 | 0.00 | 65 | 1007.0 |
| 20260506151702 | 19 | 194 | 9.7 | 24.1 | 0.00 | 0.00 | 0.00 | 66 | 1007.1 |
| 20260506151204 | 19 | 226 | 4.8 | 14.5 | 0.00 | 0.00 | 0.00 | 67 | 1007.0 |
| 20260506150702 | 19 | 182 | 8.0 | 16.1 | 0.00 | 0.00 | 0.00 | 67 | 1007.1 |
| 20260506145703 | 19 | 221 | 8.0 | 19.3 | 0.00 | 0.00 | 0.00 | 67 | 1007.3 |
| 20260506145202 | 19 | 192 | 6.4 | 16.1 | 0.00 | 0.00 | 0.00 | 67 | 1007.3 |
| 20260506144702 | 19 | 175 | 8.0 | 22.5 | 0.00 | 0.00 | 0.00 | 68 | 1007.3 |
| 20260506144202 | 19 | 190 | 4.8 | 19.3 | 0.00 | 0.00 | 0.00 | 69 | 1007.2 |
| 20260506143702 | 19 | 206 | 8.0 | 22.5 | 0.00 | 0.00 | 0.00 | 69 | 1007.3 |
| 20260506142702 | 18 | 211 | 8.0 | 19.3 | 0.00 | 0.00 | 0.00 | 70 | 1007.4 |
| 20260506142203 | 18 | 208 | 9.7 | 22.5 | 0.00 | 0.00 | 0.00 | 69 | 1007.3 |
| 20260506141702 | 18 | 166 | 9.7 | 24.1 | 0.00 | 0.00 | 0.00 | 69 | 1007.3 |
| 20260506141202 | 18 | 187 | 4.8 | 19.3 | 0.00 | 0.00 | 0.00 | 70 | 1007.2 |
| 20260506140702 | 18 | 220 | 9.7 | 19.3 | 0.00 | 0.00 | 0.00 | 70 | 1007.1 |
| 20260506140203 | 18 | 183 | 8.0 | 14.5 | 0.00 | 0.00 | 0.00 | 71 | 1007.1 |
| 20260506135702 | 18 | 199 | 4.8 | 20.9 | 0.00 | 0.00 | 0.00 | 71 | 1007.0 |
| 20260506135203 | 18 | 237 | 8.0 | 16.1 | 0.00 | 0.00 | 0.00 | 72 | 1007.0 |
| 20260506134702 | 18 | 192 | 4.8 | 16.1 | 0.00 | 0.00 | 0.00 | 73 | 1006.8 |
| 20260506134203 | 17 | 155 | 3.2 | 12.9 | 0.00 | 0.00 | 0.00 | 74 | 1007.0 |
| 20260506133202 | 17 | 124 | 4.8 | 19.3 | 0.00 | 0.00 | 0.00 | 74 | 1007.1 |
| 20260506132703 | 17 | 115 | 3.2 | 19.3 | 0.00 | 0.00 | 0.00 | 75 | 1007.2 |
| 20260506132203 | 17 | 336 | 4.8 | 19.3 | 0.00 | 0.00 | 0.00 | 75 | 1007.3 |
| 20260506131703 | 17 | 199 | 6.4 | 12.9 | 0.00 | 0.00 | 0.00 | 75 | 1007.3 |
| 20260506131202 | 17 | 139 | 1.6 | 8.0 | 0.00 | 0.00 | 0.00 | 76 | 1007.4 |
| 20260506130702 | 17 | 203 | 11.3 | 16.1 | 0.00 | 0.00 | 0.00 | 76 | 1007.5 |
| 20260506130202 | 17 | 212 | 3.2 | 12.9 | 0.00 | 0.00 | 0.00 | 77 | 1007.6 |
| 20260506124704 | 16 | 188 | 8.0 | 19.3 | 0.00 | 0.00 | 0.00 | 77 | 1007.7 |
| 20260506124202 | 16 | 222 | 11.3 | 19.3 | 0.00 | 0.00 | 0.00 | 76 | 1007.7 |
| 20260506123702 | 16 | 160 | 6.4 | 22.5 | 0.00 | 0.00 | 0.00 | 77 | 1007.7 |
| 20260506123202 | 16 | 208 | 4.8 | 19.3 | 0.00 | 0.00 | 0.00 | 77 | 1007.7 |
| 20260506122202 | 16 | 207 | 9.7 | 22.5 | 0.00 | 0.00 | 0.00 | 77 | 1007.5 |
| 20260506121202 | 16 | 210 | 12.9 | 22.5 | 0.00 | 0.00 | 0.00 | 77 | 1007.3 |
| 20260506120703 | 16 | 218 | 12.9 | 24.1 | 0.00 | 0.00 | 0.00 | 78 | 1007.4 |
| 20260506120202 | 16 | 190 | 9.7 | 20.9 | 0.00 | 0.00 | 0.00 | 78 | 1007.6 |
| 20260506115702 | 16 | 210 | 9.7 | 20.9 | 0.00 | 0.00 | 0.00 | 78 | 1007.8 |
| 20260506115202 | 16 | 221 | 11.3 | 29.0 | 0.00 | 0.00 | 0.00 | 78 | 1007.7 |
| 20260506113703 | 15 | 152 | 9.7 | 20.9 | 0.00 | 0.00 | 0.00 | 79 | 1007.6 |
| 20260506113203 | 15 | 221 | 11.3 | 25.7 | 0.00 | 0.00 | 0.00 | 79 | 1007.8 |
| 20260506112702 | 15 | 197 | 14.5 | 27.4 | 0.00 | 0.00 | 0.00 | 79 | 1007.9 |
| 20260506112202 | 15 | 226 | 8.0 | 27.4 | 0.00 | 0.00 | 0.00 | 79 | 1008.0 |
| 20260506111703 | 15 | 193 | 12.9 | 29.0 | 0.00 | 0.00 | 0.00 | 79 | 1008.0 |
| 20260506111203 | 15 | 221 | 8.0 | 22.5 | 0.00 | 0.00 | 0.00 | 79 | 1007.9 |
| 20260506110203 | 15 | 213 | 8.0 | 16.1 | 0.00 | 0.00 | 0.00 | 80 | 1008.1 |
| 20260506105703 | 15 | 224 | 9.7 | 20.9 | 0.00 | 0.00 | 0.00 | 80 | 1008.0 |
| 20260506105202 | 15 | 218 | 11.3 | 22.5 | 0.00 | 0.00 | 0.00 | 79 | 1008.1 |
| 20260506104202 | 15 | 189 | 11.3 | 27.4 | 0.00 | 0.00 | 0.00 | 79 | 1007.8 |
| 20260506103703 | 15 | 211 | 11.3 | 32.2 | 0.00 | 0.00 | 0.00 | 80 | 1007.9 |
| 20260506103202 | 15 | 182 | 8.0 | 19.3 | 0.00 | 0.00 | 0.00 | 80 | 1008.0 |
| 20260506102702 | 15 | 214 | 9.7 | 19.3 | 0.00 | 0.00 | 0.00 | 80 | 1007.9 |
| 20260506102202 | 15 | 218 | 11.3 | 22.5 | 0.00 | 0.00 | 0.00 | 80 | 1007.9 |
| 20260506101702 | 15 | 182 | 8.0 | 16.1 | 0.00 | 0.00 | 0.00 | 80 | 1007.7 |
| 20260506101203 | 15 | 160 | 9.7 | 27.4 | 0.00 | 0.00 | 0.00 | 80 | 1007.8 |
| 20260506100703 | 15 | 221 | 8.0 | 27.4 | 0.00 | 0.00 | 0.00 | 80 | 1007.8 |
| 20260506100202 | 15 | 200 | 8.0 | 19.3 | 0.00 | 0.00 | 0.00 | 79 | 1007.8 |
| 20260506095702 | 15 | 193 | 6.4 | 16.1 | 0.00 | 0.00 | 0.00 | 79 | 1007.7 |
| 20260506094203 | 15 | 203 | 8.0 | 22.5 | 0.00 | 0.00 | 0.00 | 79 | 1007.4 |
| 20260506093203 | 15 | 231 | 11.3 | 19.3 | 0.00 | 0.00 | 0.00 | 79 | 1007.6 |
| 20260506092703 | 15 | 194 | 9.7 | 20.9 | 0.00 | 0.00 | 0.00 | 78 | 1007.7 |
| 20260506092202 | 15 | 222 | 12.9 | 24.1 | 0.00 | 0.00 | 0.00 | 78 | 1007.5 |
| 20260506091702 | 15 | 183 | 8.0 | 20.9 | 0.00 | 0.00 | 0.00 | 78 | 1007.4 |
| 20260506091202 | 15 | 195 | 12.9 | 25.7 | 0.00 | 0.00 | 0.00 | 78 | 1007.4 |
| 20260506090703 | 15 | 222 | 8.0 | 19.3 | 0.00 | 0.00 | 0.00 | 78 | 1007.6 |
| 20260506090203 | 15 | 226 | 9.7 | 24.1 | 0.00 | 0.00 | 0.00 | 78 | 1007.6 |
| 20260506085702 | 15 | 193 | 12.9 | 22.5 | 0.00 | 0.00 | 0.00 | 78 | 1007.6 |
| 20260506085202 | 15 | 214 | 14.5 | 27.4 | 0.00 | 0.00 | 0.00 | 78 | 1007.7 |
| 20260506083702 | 15 | 214 | 9.7 | 25.7 | 0.00 | 0.00 | 0.00 | 77 | 1007.7 |
| 20260506083203 | 15 | 234 | 14.5 | 25.7 | 0.00 | 0.00 | 0.00 | 77 | 1007.7 |
| 20260506082702 | 15 | 203 | 12.9 | 27.4 | 0.00 | 0.00 | 0.00 | 77 | 1007.7 |
| 20260506082202 | 15 | 201 | 9.7 | 29.0 | 0.00 | 0.00 | 0.00 | 76 | 1007.7 |
| 20260506081702 | 15 | 221 | 9.7 | 20.9 | 0.00 | 0.00 | 0.00 | 76 | 1007.7 |
| 20260506081202 | 15 | 226 | 11.3 | 25.7 | 0.00 | 0.00 | 0.00 | 76 | 1007.7 |
| 20260506080703 | 15 | 230 | 9.7 | 29.0 | 0.00 | 0.00 | 0.00 | 76 | 1007.7 |
| 20260506080202 | 15 | 203 | 9.7 | 24.1 | 0.00 | 0.00 | 0.00 | 76 | 1007.7 |
| 20260506073202 | 15 | 193 | 4.8 | 16.1 | 0.00 | 0.00 | 0.00 | 74 | 1007.9 |
| 20260506072703 | 15 | 217 | 8.0 | 19.3 | 0.00 | 0.00 | 0.00 | 73 | 1007.9 |
| 20260506072202 | 15 | 216 | 6.4 | 16.1 | 0.00 | 0.00 | 0.00 | 73 | 1007.8 |
| 20260506071702 | 15 | 225 | 8.0 | 16.1 | 0.00 | 0.00 | 0.00 | 73 | 1007.8 |
| 20260506071203 | 16 | 223 | 11.3 | 20.9 | 0.00 | 0.00 | 0.00 | 72 | 1007.8 |
| 20260506070702 | 16 | 223 | 4.8 | 16.1 | 0.00 | 0.00 | 0.00 | 72 | 1007.8 |
| 20260506070202 | 16 | 219 | 9.7 | 19.3 | 0.00 | 0.00 | 0.00 | 72 | 1007.7 |
| 20260506062202 | 16 | 196 | 11.3 | 22.5 | 0.00 | 0.00 | 0.00 | 69 | 1007.6 |
| 20260506061702 | 16 | 223 | 8.0 | 19.3 | 0.00 | 0.00 | 0.00 | 69 | 1007.5 |
| 20260506061203 | 16 | 223 | 11.3 | 20.9 | 0.00 | 0.00 | 0.00 | 68 | 1007.5 |
| 20260506060703 | 16 | 206 | 12.9 | 25.7 | 0.00 | 0.00 | 0.00 | 68 | 1007.5 |
| 20260506060203 | 16 | 226 | 6.4 | 20.9 | 0.00 | 0.00 | 0.00 | 68 | 1007.4 |
| 20260506051203 | 16 | 214 | 9.7 | 32.2 | 0.00 | 0.00 | 0.00 | 66 | 1007.7 |
| 20260506050203 | 16 | 213 | 8.0 | 27.4 | 0.00 | 0.00 | 0.00 | 66 | 1007.9 |
| 20260506044702 | 16 | 184 | 11.3 | 27.4 | 0.00 | 0.00 | 0.00 | 66 | 1008.0 |
| 20260506044203 | 16 | 196 | 8.0 | 20.9 | 0.00 | 0.00 | 0.00 | 65 | 1008.0 |
| 20260506043702 | 16 | 220 | 9.7 | 22.5 | 0.00 | 0.00 | 0.00 | 65 | 1008.0 |
| 20260506043203 | 16 | 212 | 9.7 | 24.1 | 0.00 | 0.00 | 0.00 | 65 | 1008.0 |
| 20260506042703 | 16 | 227 | 11.3 | 20.9 | 0.00 | 0.00 | 0.00 | 65 | 1008.0 |
| 20260506042202 | 16 | 211 | 8.0 | 22.5 | 0.00 | 0.00 | 0.00 | 65 | 1008.1 |
| 20260506041703 | 16 | 220 | 9.7 | 22.5 | 0.00 | 0.00 | 0.00 | 65 | 1008.1 |
| 20260506041202 | 16 | 224 | 9.7 | 24.1 | 0.00 | 0.00 | 0.00 | 64 | 1008.2 |
| 20260506040712 | 16 | 197 | 11.3 | 22.5 | 0.00 | 0.00 | 0.00 | 64 | 1008.1 |
| 20260506035203 | 16 | 225 | 8.0 | 20.9 | 0.00 | 0.00 | 0.00 | 64 | 1008.1 |
| 20260506034703 | 16 | 226 | 8.0 | 20.9 | 0.00 | 0.00 | 0.00 | 64 | 1008.1 |
| 20260506033702 | 16 | 234 | 11.3 | 25.7 | 0.00 | 0.00 | 0.00 | 63 | 1008.1 |
| 20260506033203 | 17 | 187 | 9.7 | 24.1 | 0.00 | 0.00 | 0.00 | 62 | 1008.2 |
| 20260506032703 | 17 | 216 | 14.5 | 25.7 | 0.00 | 0.00 | 0.00 | 62 | 1008.1 |
| 20260506032203 | 17 | 220 | 9.7 | 22.5 | 0.00 | 0.00 | 0.00 | 62 | 1008.1 |
| 20260506031702 | 17 | 208 | 14.5 | 32.2 | 0.00 | 0.00 | 0.00 | 62 | 1008.0 |
| 20260506030703 | 17 | 189 | 8.0 | 27.4 | 0.00 | 0.00 | 0.00 | 61 | 1008.1 |
| 20260506030203 | 17 | 211 | 12.9 | 20.9 | 0.00 | 0.00 | 0.00 | 61 | 1008.0 |
| 20260506025703 | 17 | 189 | 8.0 | 16.1 | 0.00 | 0.00 | 0.00 | 61 | 1007.9 |
| 20260506025203 | 17 | 233 | 9.7 | 24.1 | 0.00 | 0.00 | 0.00 | 60 | 1007.9 |
| 20260506024702 | 17 | 207 | 8.0 | 24.1 | 0.00 | 0.00 | 0.00 | 60 | 1007.9 |
| 20260506024203 | 17 | 215 | 11.3 | 24.1 | 0.00 | 0.00 | 0.00 | 60 | 1007.9 |
| 20260506023703 | 17 | 202 | 11.3 | 27.4 | 0.00 | 0.00 | 0.00 | 60 | 1007.9 |
| 20260506023203 | 17 | 206 | 12.9 | 24.1 | 0.00 | 0.00 | 0.00 | 59 | 1007.8 |
| 20260506022703 | 17 | 219 | 9.7 | 27.4 | 0.00 | 0.00 | 0.00 | 60 | 1007.8 |
| 20260506021702 | 18 | 213 | 8.0 | 20.9 | 0.00 | 0.00 | 0.00 | 59 | 1007.8 |
| 20260506020702 | 18 | 226 | 8.0 | 19.3 | 0.00 | 0.00 | 0.00 | 58 | 1007.7 |
| 20260506020202 | 18 | 195 | 8.0 | 19.3 | 0.00 | 0.00 | 0.00 | 58 | 1007.8 |
| 20260506015702 | 18 | 212 | 11.3 | 19.3 | 0.00 | 0.00 | 0.00 | 58 | 1007.8 |
| 20260506015202 | 18 | 191 | 8.0 | 14.5 | 0.00 | 0.00 | 0.00 | 58 | 1007.8 |
| 20260506014703 | 18 | 225 | 6.4 | 14.5 | 0.00 | 0.00 | 0.00 | 58 | 1007.8 |
| 20260506014202 | 18 | 224 | 3.2 | 12.9 | 0.00 | 0.00 | 0.00 | 57 | 1007.8 |
| 20260506013703 | 18 | 204 | 4.8 | 16.1 | 0.00 | 0.00 | 0.00 | 57 | 1007.7 |
| 20260506013203 | 18 | 206 | 4.8 | 11.3 | 0.00 | 0.00 | 0.00 | 56 | 1007.7 |
| 20260506012203 | 19 | 215 | 8.0 | 14.5 | 0.00 | 0.00 | 0.00 | 55 | 1007.6 |
| 20260506011702 | 19 | 199 | 4.8 | 19.3 | 0.00 | 0.00 | 0.00 | 55 | 1007.7 |
| 20260506011203 | 19 | 216 | 4.8 | 19.3 | 0.00 | 0.00 | 0.00 | 55 | 1007.6 |